Time;durP1;ratioP1;P1;durP2;ratioP2;P2;SDS_P1;SDS_P2;PMS_P1;PMS_P2;Temp;Humidity;BMP_temperature;BMP_pressure;BME280_temperature;BME280_humidity;BME280_pressure;Samples;Min_cycle;Max_cycle;Signal;HPM_P1;HPM_P2
2020/12/02 00:00:36;;;;;;;27.73;21.08;;;;;;;4.19;76.99;100505.09;9907358;28;20092;-60
2020/12/02 00:05:44;;;;;;;26.10;19.00;;;;;;;4.19;77.45;100507.75;9900560;28;20540;-59
2020/12/02 00:10:47;;;;;;;28.48;20.25;;;;;;;4.11;77.05;100509.88;9907321;28;22936;-60
2020/12/02 00:15:49;;;;;;;26.23;19.35;;;;;;;4.10;77.06;100516.06;9913434;28;20119;-59
2020/12/02 00:20:50;;;;;;;26.35;20.65;;;;;;;4.12;76.77;100515.09;9927891;28;20057;-62
2020/12/02 00:25:51;;;;;;;27.92;21.13;;;;;;;4.06;77.50;100518.03;9917287;28;20059;-61
2020/12/02 00:30:53;;;;;;;28.63;20.77;;;;;;;4.10;77.24;100519.59;9910191;28;20053;-62
2020/12/02 00:35:55;;;;;;;22.25;18.05;;;;;;;4.07;77.29;100525.84;9911863;28;22613;-60
2020/12/02 00:40:57;;;;;;;25.25;18.45;;;;;;;4.05;77.17;100513.66;9931381;28;20057;-59
2020/12/02 00:46:01;;;;;;;24.60;18.25;;;;;;;4.10;76.80;100516.94;9907462;28;20409;-59
2020/12/02 00:51:05;;;;;;;17.13;12.80;;;;;;;3.98;77.59;100514.88;9919373;28;20049;-59
2020/12/02 00:56:10;;;;;;;21.85;17.67;;;;;;;4.07;77.05;100511.84;9922732;28;20065;-60
2020/12/02 01:01:16;;;;;;;23.65;17.45;;;;;;;4.11;76.95;100500.19;9921594;28;20060;-60
2020/12/02 01:06:18;;;;;;;20.85;16.73;;;;;;;4.14;76.37;100494.75;9919087;28;25399;-59
2020/12/02 01:11:26;;;;;;;20.88;16.63;;;;;;;4.18;75.97;100501.59;9909279;28;20053;-62
2020/12/02 01:16:38;;;;;;;25.98;19.08;;;;;;;4.26;75.84;100506.47;9916821;28;20106;-59
2020/12/02 01:21:50;;;;;;;23.35;17.33;;;;;;;4.19;75.36;100513.84;9903598;28;25085;-61
2020/12/02 01:26:59;;;;;;;22.60;17.70;;;;;;;4.17;75.84;100506.94;9912990;28;24896;-59
2020/12/02 01:32:01;;;;;;;23.40;18.20;;;;;;;4.16;76.16;100506.09;9909262;28;20054;-61
2020/12/02 01:37:05;;;;;;;22.25;17.33;;;;;;;4.19;76.28;100507.75;9921059;28;20057;-60
2020/12/02 01:42:11;;;;;;;22.40;16.23;;;;;;;4.14;76.04;100493.94;9916025;28;20064;-63
2020/12/02 01:47:44;;;;;;;21.33;17.17;;;;;;;4.14;76.23;100494.75;9907363;28;24066;-58
2020/12/02 01:52:55;;;;;;;23.70;18.02;;;;;;;4.18;76.23;100496.31;9903323;28;20438;-62
2020/12/02 01:58:01;;;;;;;21.42;17.50;;;;;;;4.20;75.85;100494.50;9908289;28;20085;-60
2020/12/02 02:03:12;;;;;;;20.88;17.77;;;;;;;4.16;75.48;100490.28;9914087;28;20711;-61
2020/12/02 02:08:16;;;;;;;22.27;17.00;;;;;;;4.22;76.10;100481.25;9918965;28;20048;-61
2020/12/02 02:13:20;;;;;;;23.70;19.02;;;;;;;4.17;75.84;100478.81;9917032;28;20072;-61
2020/12/02 02:18:25;;;;;;;22.42;17.90;;;;;;;4.12;75.96;100485.25;9925792;28;20136;-61
2020/12/02 02:23:27;;;;;;;15.90;13.60;;;;;;;4.11;75.95;100486.19;9910210;28;20057;-60
2020/12/02 02:28:31;;;;;;;23.20;17.63;;;;;;;4.06;76.10;100483.78;9916458;28;22650;-60
2020/12/02 02:33:33;;;;;;;24.67;17.33;;;;;;;4.10;76.42;100493.25;9913601;28;20053;-61
2020/12/02 02:38:34;;;;;;;24.13;17.63;;;;;;;4.09;76.57;100488.03;9900803;28;20045;-61
2020/12/02 02:43:38;;;;;;;24.02;18.73;;;;;;;4.14;75.77;100486.88;9911947;28;20049;-59
2020/12/02 02:48:39;;;;;;;21.60;17.95;;;;;;;4.13;75.92;100487.81;9903765;28;20083;-60
2020/12/02 02:53:41;;;;;;;23.65;18.88;;;;;;;4.11;76.23;100488.81;9911926;28;20115;-59
2020/12/02 02:58:43;;;;;;;22.40;17.58;;;;;;;4.04;76.33;100483.00;9911021;28;20052;-61
2020/12/02 03:03:44;;;;;;;24.83;18.83;;;;;;;4.09;76.45;100491.53;9904756;28;20060;-63
2020/12/02 03:08:46;;;;;;;21.20;16.55;;;;;;;4.01;76.32;100480.53;9916079;28;20048;-60
2020/12/02 03:13:49;;;;;;;20.73;17.00;;;;;;;4.16;75.51;100484.16;9904521;28;20090;-61
2020/12/02 03:18:56;;;;;;;21.70;17.40;;;;;;;4.06;75.98;100475.88;9894418;28;20136;-60
2020/12/02 03:23:57;;;;;;;20.50;17.33;;;;;;;4.11;75.69;100473.84;9901349;28;20064;-60
2020/12/02 03:29:03;;;;;;;21.00;16.73;;;;;;;4.17;75.56;100485.88;9908231;28;20061;-59
2020/12/02 03:34:10;;;;;;;23.15;17.38;;;;;;;4.13;75.16;100493.09;9917591;28;20052;-61
2020/12/02 03:39:14;;;;;;;20.88;17.52;;;;;;;4.12;75.65;100499.28;9915986;28;20057;-60
2020/12/02 03:44:15;;;;;;;19.77;16.27;;;;;;;4.08;75.54;100479.28;9915683;28;24515;-59
2020/12/02 03:49:17;;;;;;;20.60;17.25;;;;;;;4.18;75.45;100495.47;9919573;28;20063;-60
2020/12/02 03:54:19;;;;;;;21.77;17.23;;;;;;;4.14;75.35;100484.22;9917338;28;20061;-60
2020/12/02 03:59:20;;;;;;;23.33;17.38;;;;;;;4.20;75.27;100491.84;9912904;28;20052;-63
2020/12/02 04:04:22;;;;;;;23.80;17.80;;;;;;;4.26;75.26;100488.03;9919771;28;20483;-60
2020/12/02 04:09:23;;;;;;;22.02;15.73;;;;;;;4.21;75.42;100480.38;9921861;28;20050;-61
2020/12/02 04:14:24;;;;;;;23.10;17.80;;;;;;;4.23;75.39;100477.66;9917178;28;20798;-60
2020/12/02 04:19:26;;;;;;;21.85;17.30;;;;;;;4.20;75.76;100481.31;9906506;28;21150;-60
2020/12/02 04:24:27;;;;;;;21.23;15.93;;;;;;;4.19;75.72;100476.13;9915146;28;20053;-60
2020/12/02 04:29:29;;;;;;;20.80;15.63;;;;;;;4.18;75.89;100469.97;9928819;28;20057;-59
2020/12/02 04:34:33;;;;;;;21.80;17.20;;;;;;;4.14;75.78;100463.16;9919448;28;23716;-61
2020/12/02 04:39:34;;;;;;;20.95;16.42;;;;;;;4.21;75.76;100463.72;9925353;28;20045;-59
2020/12/02 04:44:36;;;;;;;23.17;17.27;;;;;;;4.24;75.41;100458.28;9911896;28;21802;-59
2020/12/02 04:49:37;;;;;;;22.13;18.00;;;;;;;4.20;75.78;100468.13;9910160;28;20054;-60
2020/12/02 04:54:40;;;;;;;23.55;17.30;;;;;;;4.18;75.89;100459.44;9930111;28;24270;-58
2020/12/02 04:59:43;;;;;;;21.67;16.58;;;;;;;4.20;75.62;100467.25;9922766;28;20053;-59
2020/12/02 05:04:54;;;;;;;20.60;15.98;;;;;;;4.20;75.48;100468.13;9908626;28;20057;-60
2020/12/02 05:10:15;;;;;;;23.15;17.90;;;;;;;4.21;75.69;100472.47;9917901;28;20057;-59
2020/12/02 05:15:27;;;;;;;21.50;17.02;;;;;;;4.09;75.32;100465.19;9910401;28;20238;-60
2020/12/02 05:20:28;;;;;;;21.17;16.85;;;;;;;4.15;74.99;100475.41;9908175;28;20053;-61
2020/12/02 05:25:32;;;;;;;21.38;16.60;;;;;;;4.12;75.36;100464.19;9917584;28;20056;-62
2020/12/02 05:30:36;;;;;;;21.67;17.17;;;;;;;4.14;75.17;100463.16;9917604;28;20393;-61
2020/12/02 05:35:57;;;;;;;23.58;17.92;;;;;;;4.11;75.58;100468.56;9912236;28;20329;-59
2020/12/02 05:41:01;;;;;;;24.13;18.10;;;;;;;4.15;74.89;100464.03;9911525;28;21767;-59
2020/12/02 05:46:03;;;;;;;22.48;17.55;;;;;;;4.13;74.93;100461.47;9918474;28;20080;-61
2020/12/02 05:51:09;;;;;;;20.48;16.23;;;;;;;4.08;74.82;100458.19;9903393;28;20049;-61
2020/12/02 05:56:10;;;;;;;24.52;18.00;;;;;;;4.13;74.71;100461.47;9913491;28;20138;-61
2020/12/02 06:01:15;;;;;;;21.38;16.92;;;;;;;3.99;74.56;100453.38;9902637;28;20136;-62
2020/12/02 06:06:16;;;;;;;20.63;16.73;;;;;;;4.08;74.94;100458.19;9907178;28;20057;-60
2020/12/02 06:11:18;;;;;;;20.35;17.13;;;;;;;3.95;75.92;100462.38;9911117;28;20053;-60
2020/12/02 06:16:22;;;;;;;20.88;17.08;;;;;;;3.92;73.95;100451.97;9914442;28;20182;-60
2020/12/02 06:21:48;;;;;;;18.80;15.47;;;;;;;3.85;74.23;100446.19;9916837;28;20517;-59
2020/12/02 06:26:50;;;;;;;21.48;17.33;;;;;;;3.91;73.95;100432.72;9901050;28;20063;-60
2020/12/02 06:31:56;;;;;;;19.15;15.68;;;;;;;3.86;73.40;100432.94;9900666;28;24314;-60
2020/12/02 06:37:10;;;;;;;20.23;16.58;;;;;;;3.88;72.92;100436.34;9911288;28;20049;-60
2020/12/02 06:42:42;;;;;;;18.73;15.55;;;;;;;3.94;72.41;100436.97;9922487;28;20053;-61
2020/12/02 06:47:49;;;;;;;20.15;16.58;;;;;;;3.94;72.82;100440.44;9910812;28;20059;-61
2020/12/02 06:52:51;;;;;;;19.58;15.52;;;;;;;3.84;72.83;100439.19;9907002;28;20122;-59
2020/12/02 06:58:16;;;;;;;23.63;17.77;;;;;;;3.71;72.62;100446.88;9911983;28;22538;-59
2020/12/02 07:03:34;;;;;;;24.08;19.90;;;;;;;3.70;72.86;100445.16;9908060;28;21007;-60
2020/12/02 07:08:38;;;;;;;21.65;17.55;;;;;;;3.73;72.68;100437.09;9908534;28;20509;-60
2020/12/02 07:13:43;;;;;;;27.08;22.73;;;;;;;3.77;72.82;100437.78;9914009;28;20063;-62
2020/12/02 07:18:53;;;;;;;23.33;17.27;;;;;;;3.83;72.23;100438.34;9916403;28;20056;-61
2020/12/02 07:23:55;;;;;;;26.85;23.23;;;;;;;3.80;72.66;100449.03;9926440;28;20422;-60
2020/12/02 07:29:17;;;;;;;25.20;20.17;;;;;;;3.72;72.04;100448.56;9917757;28;20064;-60
2020/12/02 07:34:23;;;;;;;25.00;20.15;;;;;;;3.71;71.95;100449.50;9918761;28;20406;-61
2020/12/02 07:39:25;;;;;;;20.70;15.52;;;;;;;3.67;71.79;100448.78;9931721;28;21552;-60
2020/12/02 07:44:29;;;;;;;22.30;17.05;;;;;;;3.77;72.67;100443.06;9911400;28;20502;-59
2020/12/02 07:49:31;;;;;;;23.52;16.77;;;;;;;3.79;72.04;100441.22;9917812;28;20060;-60
2020/12/02 07:54:32;;;;;;;24.48;18.33;;;;;;;3.75;71.68;100440.50;9931070;28;25803;-59
2020/12/02 07:59:34;;;;;;;24.85;18.88;;;;;;;3.78;72.70;100442.97;9918335;28;20467;-60
2020/12/02 08:04:49;;;;;;;22.77;17.92;;;;;;;3.81;71.83;100441.97;9929305;28;20148;-59
2020/12/02 08:09:54;;;;;;;24.77;19.20;;;;;;;3.83;72.34;100441.00;9936570;28;20055;-59
2020/12/02 08:15:08;;;;;;;23.45;17.50;;;;;;;3.89;72.11;100430.16;9918060;28;23959;-60
2020/12/02 08:20:30;;;;;;;21.85;17.13;;;;;;;3.95;70.82;100433.38;9934565;28;20052;-60
2020/12/02 08:25:46;;;;;;;21.10;15.13;;;;;;;4.07;70.41;100430.16;9923117;28;20613;-60
2020/12/02 08:31:17;;;;;;;22.77;17.15;;;;;;;4.11;70.65;100430.84;9933441;28;20060;-62
2020/12/02 08:36:19;;;;;;;21.58;17.13;;;;;;;4.16;70.58;100439.34;9911726;28;20499;-59
2020/12/02 08:41:20;;;;;;;20.88;16.13;;;;;;;4.20;72.18;100439.16;9931629;28;20059;-59
2020/12/02 08:46:26;;;;;;;33.30;18.33;;;;;;;4.33;70.27;100430.63;9909409;28;20059;-59
2020/12/02 08:51:29;;;;;;;24.90;18.10;;;;;;;4.34;70.76;100433.16;9930866;28;20612;-60
2020/12/02 08:56:37;;;;;;;23.65;18.30;;;;;;;4.38;70.92;100429.44;9917273;28;20445;-60
2020/12/02 09:01:40;;;;;;;31.42;23.98;;;;;;;4.50;70.79;100427.09;9929667;28;20716;-59
2020/12/02 09:06:41;;;;;;;22.33;17.95;;;;;;;4.44;70.51;100425.63;9924295;28;22573;-59
2020/12/02 09:11:42;;;;;;;21.58;17.25;;;;;;;4.47;71.19;100427.25;9923106;28;20049;-63
2020/12/02 09:16:43;;;;;;;23.77;18.90;;;;;;;4.66;71.27;100427.16;9927936;28;24471;-60
2020/12/02 09:21:46;;;;;;;24.15;18.48;;;;;;;4.79;69.89;100417.66;9910944;28;20049;-67
2020/12/02 09:26:48;;;;;;;23.38;17.40;;;;;;;4.74;69.80;100414.38;9912175;28;20065;-65
2020/12/02 09:31:52;;;;;;;21.13;16.17;;;;;;;4.60;70.18;100386.97;9924964;28;20057;-60
2020/12/02 09:36:53;;;;;;;22.80;17.80;;;;;;;4.66;68.97;100406.03;9913557;28;20081;-63
2020/12/02 09:42:06;;;;;;;21.42;18.05;;;;;;;4.66;70.03;100403.41;9916790;28;20051;-61
2020/12/02 09:47:13;;;;;;;24.30;17.80;;;;;;;4.55;69.47;100394.28;9927035;28;20057;-60
2020/12/02 09:52:30;;;;;;;21.95;18.10;;;;;;;4.54;70.06;100397.00;9914262;28;21305;-60
2020/12/02 09:57:31;;;;;;;22.92;17.88;;;;;;;4.63;70.30;100388.59;9914635;28;20057;-61
2020/12/02 10:02:59;;;;;;;21.10;17.00;;;;;;;4.69;69.00;100387.41;9913292;28;20056;-62
2020/12/02 10:08:09;;;;;;;22.10;17.30;;;;;;;4.73;68.85;100381.06;9913079;28;20694;-61
2020/12/02 10:13:38;;;;;;;20.48;17.23;;;;;;;4.74;69.35;100375.69;9932568;28;25381;-60
2020/12/02 10:18:54;;;;;;;22.90;17.20;;;;;;;4.80;68.71;100366.56;9910871;28;20049;-60
2020/12/02 10:24:09;;;;;;;23.55;18.05;;;;;;;4.83;68.59;100363.78;9923623;28;20442;-61
2020/12/02 10:29:40;;;;;;;20.92;17.20;;;;;;;4.74;68.59;100354.59;9901495;28;20050;-62
2020/12/02 10:34:44;;;;;;;20.92;16.83;;;;;;;4.75;68.96;100335.19;9922143;28;20053;-60
2020/12/02 10:39:46;;;;;;;20.38;17.13;;;;;;;4.78;68.80;100326.25;9921183;28;21523;-61
2020/12/02 10:45:01;;;;;;;47.50;34.95;;;;;;;4.87;68.72;100315.19;9912299;28;20147;-60
2020/12/02 10:50:05;;;;;;;19.13;15.25;;;;;;;4.91;68.64;100311.47;9907921;28;20054;-60
2020/12/02 10:55:11;;;;;;;22.33;17.23;;;;;;;4.89;68.57;100302.75;9918671;28;23090;-60
2020/12/02 11:00:14;;;;;;;22.95;17.02;;;;;;;4.92;68.55;100291.19;9907058;28;20423;-60
2020/12/02 11:05:16;;;;;;;18.97;15.83;;;;;;;4.92;67.84;100292.06;9911956;28;23317;-61
2020/12/02 11:10:38;;;;;;;18.77;15.77;;;;;;;4.68;67.82;100282.88;9917820;28;20057;-61
2020/12/02 11:16:03;;;;;;;21.90;17.40;;;;;;;4.60;68.86;100278.88;9909965;28;20049;-59
2020/12/02 11:21:41;;;;;;;22.08;17.60;;;;;;;4.72;69.02;100260.69;9907907;28;20053;-60
2020/12/02 11:26:42;;;;;;;24.13;18.85;;;;;;;4.76;68.95;100252.50;9921559;28;23483;-60
2020/12/02 11:32:09;;;;;;;18.75;15.23;;;;;;;4.86;68.00;100246.69;9907394;28;20060;-60
2020/12/02 11:37:17;;;;;;;22.17;17.58;;;;;;;4.90;68.26;100245.59;9905668;28;20053;-62
2020/12/02 11:42:22;;;;;;;19.70;15.63;;;;;;;4.88;67.18;100232.50;9922743;28;20056;-61
2020/12/02 11:48:00;;;;;;;20.98;16.15;;;;;;;4.85;68.04;100227.41;9922759;28;20148;-59
2020/12/02 11:53:21;;;;;;;21.38;17.55;;;;;;;4.86;67.83;100217.69;9914689;28;20414;-61
2020/12/02 11:58:23;;;;;;;21.92;17.38;;;;;;;4.84;67.23;100204.59;9912645;28;20111;-62
2020/12/02 12:03:42;;;;;;;21.58;16.65;;;;;;;4.85;67.97;100203.66;10004947;28;20052;-60
2020/12/02 12:09:10;;;;;;;20.08;16.05;;;;;;;4.89;67.73;100202.53;9929072;28;22687;-61
2020/12/02 12:14:48;;;;;;;23.25;16.92;;;;;;;4.92;66.93;100186.56;9928605;28;20050;-60
2020/12/02 12:20:25;;;;;;;21.75;16.13;;;;;;;5.02;68.45;100186.84;9938443;28;20045;-59
2020/12/02 12:25:35;;;;;;;21.63;17.58;;;;;;;5.04;67.92;100174.41;9922643;28;22253;-60
2020/12/02 12:30:36;;;;;;;20.20;16.70;;;;;;;4.89;68.24;100165.59;9922475;28;25227;-60
2020/12/02 12:35:50;;;;;;;23.67;17.45;;;;;;;4.97;68.28;100165.19;9893802;28;20441;-61
2020/12/02 12:41:01;;;;;;;23.98;16.85;;;;;;;4.96;68.34;100152.91;9898275;28;20057;-60
2020/12/02 12:46:10;;;;;;;27.02;24.15;;;;;;;4.98;68.44;100142.28;9883538;28;20082;-60
2020/12/02 12:51:14;;;;;;;23.10;17.38;;;;;;;4.93;68.19;100135.47;9912828;28;20076;-61
2020/12/02 12:56:16;;;;;;;21.48;15.52;;;;;;;4.83;67.58;100123.75;9919818;28;20562;-60
2020/12/02 13:01:18;;;;;;;22.88;18.08;;;;;;;4.87;68.01;100135.00;9927834;28;20198;-61
2020/12/02 13:06:45;;;;;;;24.75;18.65;;;;;;;4.86;67.97;100128.84;9920948;28;20498;-61
2020/12/02 13:12:09;;;;;;;22.48;16.30;;;;;;;4.82;68.20;100127.34;9913884;28;20057;-60
2020/12/02 13:17:17;;;;;;;22.38;17.50;;;;;;;4.87;68.43;100114.72;9913387;28;20124;-60
2020/12/02 13:22:35;;;;;;;24.30;17.40;;;;;;;4.84;68.23;100114.06;9916335;28;20125;-61
2020/12/02 13:27:37;;;;;;;21.33;17.48;;;;;;;4.83;68.67;100110.56;9929364;28;20519;-60
2020/12/02 13:33:03;;;;;;;19.92;15.52;;;;;;;4.82;67.32;100115.94;9911368;28;24394;-61
2020/12/02 13:38:09;;;;;;;18.15;15.65;;;;;;;4.83;67.21;100113.22;9914311;28;20056;-60
2020/12/02 13:43:28;;;;;;;17.88;13.82;;;;;;;4.82;65.64;100115.94;9913095;28;20045;-61
2020/12/02 13:48:30;;;;;;;17.80;13.65;;;;;;;4.83;66.63;100102.66;9907839;28;20403;-62
2020/12/02 13:53:38;;;;;;;14.30;12.80;;;;;;;4.82;65.29;100098.34;9910295;28;20065;-62
2020/12/02 13:58:45;;;;;;;14.68;12.95;;;;;;;4.85;65.07;100103.44;9908952;28;20048;-61
2020/12/02 14:04:24;;;;;;;18.50;14.93;;;;;;;4.79;65.04;100106.44;9912618;28;20727;-61
2020/12/02 14:09:38;;;;;;;16.20;13.45;;;;;;;4.70;65.70;100104.31;9931298;28;20187;-60
2020/12/02 14:14:43;;;;;;;17.52;14.75;;;;;;;4.66;65.98;100105.47;9904724;28;20063;-60
2020/12/02 14:19:45;;;;;;;15.00;13.40;;;;;;;4.57;64.67;100097.13;9907419;28;20060;-61
2020/12/02 14:25:11;;;;;;;15.38;13.73;;;;;;;4.67;65.89;100096.59;9908767;28;21035;-60
2020/12/02 14:30:17;;;;;;;;;;;;;;;4.67;66.11;100088.66;9898854;28;20061;-62
2020/12/02 14:35:23;;;;;;;16.60;13.65;;;;;;;4.65;66.13;100094.03;9913936;28;20389;-62
2020/12/02 14:40:27;;;;;;;16.55;13.95;;;;;;;4.62;66.65;100088.94;9922866;28;20048;-64
2020/12/02 14:45:28;;;;;;;17.05;14.00;;;;;;;4.65;65.75;100090.56;9918689;28;20060;-63
2020/12/02 14:50:30;;;;;;;17.40;15.00;;;;;;;4.60;65.69;100091.66;10144061;28;20098;-61
2020/12/02 14:55:31;;;;;;;14.98;13.20;;;;;;;4.65;65.89;100098.47;9922795;28;20053;-61
2020/12/02 15:00:34;;;;;;;15.98;13.93;;;;;;;4.64;65.95;100094.13;9914856;28;20057;-61
2020/12/02 15:05:35;;;;;;;15.75;13.77;;;;;;;4.59;66.01;100083.84;9914055;28;20061;-61
2020/12/02 15:10:40;;;;;;;18.60;15.25;;;;;;;4.63;66.23;100081.91;9922049;28;20132;-61
2020/12/02 15:15:41;;;;;;;17.00;14.17;;;;;;;4.59;66.47;100081.22;9898509;28;20053;-60
2020/12/02 15:20:48;;;;;;;17.30;13.90;;;;;;;4.69;65.49;100071.00;9910370;28;22822;-60
2020/12/02 15:25:49;;;;;;;16.77;14.98;;;;;;;4.70;65.94;100076.19;9913099;28;20054;-61
2020/12/02 15:30:54;;;;;;;16.77;14.57;;;;;;;4.73;65.84;100069.88;9915918;28;20068;-61
2020/12/02 15:36:11;;;;;;;15.23;13.60;;;;;;;4.68;66.24;100061.38;9926233;28;20062;-62
2020/12/02 15:41:48;;;;;;;15.82;14.13;;;;;;;4.66;65.66;100055.34;9924122;28;20088;-60
2020/12/02 15:47:28;;;;;;;16.30;13.48;;;;;;;4.62;65.82;100046.75;9924482;28;20084;-60
2020/12/02 15:52:37;;;;;;;15.85;14.15;;;;;;;4.67;66.28;100049.13;9914711;28;20526;-61
2020/12/02 15:57:53;;;;;;;16.60;14.70;;;;;;;4.69;65.81;100053.38;9924330;28;20056;-60
2020/12/02 16:02:54;;;;;;;16.48;13.10;;;;;;;4.67;65.58;100049.13;9919178;28;20057;-61
2020/12/02 16:08:13;;;;;;;17.00;14.57;;;;;;;4.62;66.15;100038.00;9912066;28;20197;-60
2020/12/02 16:13:16;;;;;;;18.63;15.35;;;;;;;4.65;65.83;100051.00;9919529;28;20053;-63
2020/12/02 16:18:18;;;;;;;15.55;13.70;;;;;;;4.63;65.94;100040.56;9919906;28;20527;-63
2020/12/02 16:23:21;;;;;;;15.90;13.50;;;;;;;4.64;65.89;100028.22;9926074;28;20414;-60
2020/12/02 16:28:32;;;;;;;15.63;13.55;;;;;;;4.68;65.51;100029.72;9918963;28;20050;-60
2020/12/02 16:33:40;;;;;;;17.13;14.98;;;;;;;4.73;65.30;100027.69;9918959;28;20076;-61
2020/12/02 16:38:42;;;;;;;18.13;15.43;;;;;;;4.69;65.19;100024.38;9914702;28;20648;-60
2020/12/02 16:43:55;;;;;;;16.80;14.38;;;;;;;4.67;65.97;100022.75;9922097;28;21800;-63
2020/12/02 16:49:35;;;;;;;19.85;15.60;;;;;;;4.69;65.55;100011.19;9928675;28;20048;-63
2020/12/02 16:54:55;;;;;;;18.13;14.80;;;;;;;4.70;65.41;100012.03;9899916;28;22584;-61
2020/12/02 17:00:16;;;;;;;18.33;14.55;;;;;;;4.71;65.55;100008.47;9911662;28;20087;-62
2020/12/02 17:05:23;;;;;;;18.23;16.13;;;;;;;4.68;65.50;100000.72;9921338;28;20050;-60
2020/12/02 17:10:27;;;;;;;17.75;15.65;;;;;;;4.69;65.61;99999.81;9904808;28;20587;-61
2020/12/02 17:15:51;;;;;;;18.30;16.10;;;;;;;4.68;65.83;99998.09;9918752;28;20053;-60
2020/12/02 17:21:11;;;;;;;23.02;18.17;;;;;;;4.62;65.74;100006.38;9907832;28;20059;-60
2020/12/02 17:26:18;;;;;;;21.00;17.40;;;;;;;4.56;65.68;100007.59;9902181;28;20049;-63
2020/12/02 17:31:45;;;;;;;20.88;17.58;;;;;;;4.54;66.12;99996.28;9914121;28;20527;-60
2020/12/02 17:36:52;;;;;;;19.17;16.80;;;;;;;4.51;66.42;99997.31;9925585;28;20065;-60
2020/12/02 17:42:00;;;;;;;21.17;18.77;;;;;;;4.54;66.51;100001.56;9911751;28;20266;-61
2020/12/02 17:47:31;;;;;;;23.23;17.92;;;;;;;4.60;66.52;100002.03;9912892;28;21970;-61
2020/12/02 17:53:12;;;;;;;18.65;16.08;;;;;;;4.62;66.57;100001.94;9908205;28;20143;-64
2020/12/02 17:58:13;;;;;;;19.80;16.98;;;;;;;4.50;66.98;100003.50;9889939;28;23555;-59
2020/12/02 18:03:35;;;;;;;21.33;18.63;;;;;;;4.33;67.22;99998.41;9910641;28;20056;-61
2020/12/02 18:08:45;;;;;;;21.52;18.05;;;;;;;4.27;68.74;99991.69;9899789;28;20049;-58
2020/12/02 18:14:12;;;;;;;20.05;17.33;;;;;;;4.29;67.95;99987.19;9904850;28;20148;-61
2020/12/02 18:19:30;;;;;;;62.33;57.03;;;;;;;4.18;67.89;99985.19;9925278;28;20069;-59
2020/12/02 18:25:03;;;;;;;20.92;18.73;;;;;;;4.17;68.71;99988.75;9907229;28;20057;-59
2020/12/02 18:30:26;;;;;;;23.38;20.75;;;;;;;4.23;67.20;99995.44;9895112;28;20060;-59
2020/12/02 18:35:54;;;;;;;21.23;18.08;;;;;;;4.15;66.29;99995.91;9904917;28;20662;-62
2020/12/02 18:41:03;;;;;;;19.77;17.65;;;;;;;4.06;67.15;99991.16;9917864;28;23783;-60
2020/12/02 18:46:12;;;;;;;21.27;17.25;;;;;;;4.22;66.78;99978.81;9911430;28;22190;-63
2020/12/02 18:51:13;;;;;;;55.75;50.53;;;;;;;4.22;67.01;99977.97;9876797;28;20049;-64
2020/12/02 18:56:37;;;;;;;27.90;25.10;;;;;;;4.20;66.40;99975.41;9879709;28;20059;-61
2020/12/02 19:01:40;;;;;;;19.92;17.77;;;;;;;4.12;66.37;99968.91;9875385;28;20139;-60
2020/12/02 19:06:47;;;;;;;24.15;21.60;;;;;;;4.16;66.43;99968.63;9884211;28;20049;-60
2020/12/02 19:12:13;;;;;;;19.23;17.05;;;;;;;4.23;66.88;99962.06;9884269;28;20056;-61
2020/12/02 19:17:55;;;;;;;20.92;18.73;;;;;;;4.21;66.67;99958.66;9883103;28;20064;-60
2020/12/02 19:23:11;;;;;;;20.73;18.00;;;;;;;4.22;66.27;99964.78;9882335;28;20084;-61
2020/12/02 19:28:18;;;;;;;19.50;17.42;;;;;;;4.12;66.04;99961.81;9881574;28;22236;-63
2020/12/02 19:33:44;;;;;;;21.77;19.35;;;;;;;4.15;67.38;99958.19;9883269;28;20076;-61
2020/12/02 19:39:04;;;;;;;22.08;17.85;;;;;;;4.28;66.71;99960.91;9876161;28;20291;-60
2020/12/02 19:44:14;;;;;;;20.30;17.45;;;;;;;4.17;65.91;99972.94;9882058;28;20052;-61
2020/12/02 19:49:33;;;;;;;22.30;19.65;;;;;;;4.12;66.89;99969.72;9895145;28;20056;-60
2020/12/02 19:54:42;;;;;;;18.98;16.98;;;;;;;4.14;66.47;99965.22;9900915;28;20213;-62
2020/12/02 19:59:56;;;;;;;22.00;18.60;;;;;;;4.10;67.10;99953.19;9900850;28;20051;-61
2020/12/02 20:05:24;;;;;;;20.70;17.30;;;;;;;4.09;66.15;99956.75;9895853;28;20719;-60
2020/12/02 20:10:29;;;;;;;20.73;16.45;;;;;;;4.17;67.64;99962.41;9897769;28;20060;-62
2020/12/02 20:15:55;;;;;;;21.13;18.08;;;;;;;4.16;66.95;99950.19;9877706;28;20057;-63
2020/12/02 20:21:16;;;;;;;20.70;18.35;;;;;;;4.16;66.58;99939.66;9888683;28;20049;-60
2020/12/02 20:26:25;;;;;;;21.13;17.00;;;;;;;4.05;66.84;99939.41;9897755;28;20056;-62
2020/12/02 20:31:29;;;;;;;19.33;17.23;;;;;;;3.92;67.32;99941.06;9891170;28;20060;-63
2020/12/02 20:36:30;;;;;;;19.42;17.42;;;;;;;4.00;68.12;99928.31;9904101;28;20055;-60
2020/12/02 20:41:33;;;;;;;21.52;17.50;;;;;;;3.99;66.71;99908.16;9890538;28;20065;-62
2020/12/02 20:46:52;;;;;;;19.45;17.15;;;;;;;4.01;67.57;99904.50;9882972;28;20049;-64
2020/12/02 20:52:07;;;;;;;22.30;18.85;;;;;;;4.08;67.82;99894.44;9725694;28;20056;-60
2020/12/02 20:57:15;;;;;;;23.70;18.15;;;;;;;3.85;67.58;99893.19;9851454;28;22626;-63
2020/12/02 21:02:24;;;;;;;22.13;18.77;;;;;;;3.73;67.79;99884.22;9869036;28;20672;-61
2020/12/02 21:07:27;;;;;;;20.48;17.90;;;;;;;3.70;68.31;99885.22;9865438;28;20049;-63
2020/12/02 21:12:29;;;;;;;23.42;18.33;;;;;;;3.62;68.28;99892.72;9872561;28;20203;-60
2020/12/02 21:17:44;;;;;;;21.75;17.65;;;;;;;3.59;68.43;99884.13;9855677;28;20535;-62
2020/12/02 21:23:09;;;;;;;20.15;17.58;;;;;;;3.53;68.45;99862.50;9866808;28;20056;-60
2020/12/02 21:28:25;;;;;;;21.33;17.77;;;;;;;3.65;69.02;99868.03;9875874;28;20060;-63
2020/12/02 21:33:51;;;;;;;20.50;17.48;;;;;;;3.51;69.02;99848.59;9863718;28;20068;-61
2020/12/02 21:39:27;;;;;;;22.73;18.13;;;;;;;3.50;69.19;99854.81;9859130;28;20049;-62
2020/12/02 21:44:55;;;;;;;22.10;19.52;;;;;;;3.51;69.18;99859.13;9873273;28;20093;-61
2020/12/02 21:50:14;;;;;;;23.10;19.33;;;;;;;3.46;69.22;99850.63;9866409;28;20054;-62
2020/12/02 21:55:53;;;;;;;23.98;19.33;;;;;;;3.41;69.87;99851.84;9876090;28;20053;-62
2020/12/02 22:00:55;;;;;;;25.98;20.42;;;;;;;3.45;70.26;99851.59;9874858;28;20052;-61
2020/12/02 22:06:14;;;;;;;26.70;21.48;;;;;;;3.36;70.52;99850.34;9873100;28;20084;-61
2020/12/02 22:11:51;;;;;;;23.75;20.58;;;;;;;3.26;70.60;99850.91;9869083;28;20053;-62
2020/12/02 22:17:22;;;;;;;25.33;21.65;;;;;;;3.31;70.95;99849.72;9860234;28;20099;-61
2020/12/02 22:22:31;;;;;;;26.75;22.10;;;;;;;3.31;70.99;99851.53;9887020;28;20055;-61
2020/12/02 22:27:32;;;;;;;27.13;21.77;;;;;;;3.26;71.93;99843.03;9897134;28;22087;-61
2020/12/02 22:33:08;;;;;;;29.85;23.27;;;;;;;3.28;72.17;99846.44;9899453;28;20053;-63
2020/12/02 22:38:31;;;;;;;27.10;22.17;;;;;;;3.25;72.82;99849.25;9906756;28;20048;-61
2020/12/02 22:43:59;;;;;;;24.65;20.40;;;;;;;3.15;74.04;99843.63;9879892;28;20135;-61
2020/12/02 22:49:02;;;;;;;25.73;20.42;;;;;;;3.09;74.66;99858.00;9886090;28;20056;-61
2020/12/02 22:54:04;;;;;;;27.52;21.83;;;;;;;2.99;75.54;99841.88;9895464;28;20072;-62
2020/12/02 22:59:12;;;;;;;29.27;22.83;;;;;;;2.91;76.17;99837.97;9896519;28;22144;-61
2020/12/02 23:04:15;;;;;;;29.40;21.70;;;;;;;2.94;76.17;99840.44;9894757;28;20091;-60
2020/12/02 23:09:21;;;;;;;31.25;24.05;;;;;;;2.86;77.07;99861.88;9882591;28;20053;-62
2020/12/02 23:14:31;;;;;;;32.47;23.65;;;;;;;2.70;77.68;99846.09;9889386;28;20515;-63
2020/12/02 23:19:42;;;;;;;30.27;22.65;;;;;;;2.60;77.96;99834.41;9901918;28;20060;-62
2020/12/02 23:24:43;;;;;;;30.20;23.05;;;;;;;2.72;77.73;99823.22;9900322;28;20048;-61
2020/12/02 23:30:12;;;;;;;31.58;23.25;;;;;;;2.76;77.94;99824.75;9906023;28;20395;-60
2020/12/02 23:35:15;;;;;;;29.70;23.00;;;;;;;2.86;77.30;99824.25;9902810;28;25665;-62
2020/12/02 23:40:17;;;;;;;32.67;24.27;;;;;;;2.77;77.45;99805.41;9902863;28;20180;-61
2020/12/02 23:45:34;;;;;;;33.15;24.90;;;;;;;2.69;77.72;99802.38;9907945;28;20053;-62
2020/12/02 23:50:41;;;;;;;31.50;24.15;;;;;;;2.58;78.49;99804.72;9913248;28;20538;-63